Time,TemperatureF,DewpointF,PressureIn,WindDirection,WindDirectionDegrees,WindSpeedMPH,WindSpeedGustMPH,Humidity,HourlyPrecipIn,Conditions,Clouds,dailyrainin,SoftwareType,DateUTC
2013-03-22 00:00:00,55.2,53.2,29.95,NE,51,0.0,0.0,93,0.00,,,0.00,meteohub,2013-03-22 04:00:00,
2013-03-22 00:01:00,55.2,53.2,29.95,NE,51,0.0,0.0,93,0.00,,,0.00,meteohub,2013-03-22 04:01:00,
2013-03-22 00:03:00,55.0,52.7,29.95,NE,51,0.0,0.0,92,0.00,,,0.00,meteohub,2013-03-22 04:03:00,
2013-03-22 00:08:00,55.0,52.7,29.95,NE,51,0.0,0.0,92,0.00,,,0.00,meteohub,2013-03-22 04:08:00,
2013-03-22 00:13:00,55.0,53.1,29.95,NE,51,0.0,0.0,93,0.00,,,0.00,meteohub,2013-03-22 04:13:00,
2013-03-22 00:18:00,54.9,52.9,29.95,NE,51,0.0,0.0,93,0.00,,,0.00,meteohub,2013-03-22 04:18:00,
2013-03-22 00:23:00,54.9,52.9,29.95,NE,51,0.0,0.0,93,0.00,,,0.00,meteohub,2013-03-22 04:23:00,
2013-03-22 00:28:00,54.9,52.9,29.95,NE,51,0.0,0.0,93,0.00,,,0.00,meteohub,2013-03-22 04:28:00,
2013-03-22 00:33:00,54.7,52.7,29.95,NE,51,0.0,0.0,93,0.00,,,0.00,meteohub,2013-03-22 04:33:00,
2013-03-22 00:38:00,54.3,52.3,29.95,NE,51,0.0,0.0,93,0.00,,,0.00,meteohub,2013-03-22 04:38:00,
2013-03-22 00:43:00,54.3,52.3,29.94,NE,51,0.0,0.0,93,0.00,,,0.00,meteohub,2013-03-22 04:43:00,
2013-03-22 00:49:00,54.3,52.7,29.94,NE,51,0.0,0.0,94,0.00,,,0.00,meteohub,2013-03-22 04:49:00,
2013-03-22 00:54:00,54.1,52.5,29.94,NE,51,0.0,0.0,94,0.00,,,0.00,meteohub,2013-03-22 04:54:00,
2013-03-22 00:59:00,54.1,52.5,29.94,NE,51,0.0,0.0,94,0.00,,,0.00,meteohub,2013-03-22 04:59:00,
2013-03-22 01:04:00,54.1,52.5,29.94,NE,51,0.0,0.0,94,0.00,,,0.00,meteohub,2013-03-22 05:04:00,
2013-03-22 01:09:00,54.0,52.3,29.94,NE,51,0.0,0.0,94,0.00,,,0.00,meteohub,2013-03-22 05:09:00,
2013-03-22 01:14:00,54.0,52.3,29.94,NE,51,0.0,0.0,94,0.00,,,0.00,meteohub,2013-03-22 05:14:00,
2013-03-22 01:19:00,54.0,52.3,29.94,NE,51,0.0,0.0,94,0.00,,,0.00,meteohub,2013-03-22 05:19:00,
2013-03-22 01:24:00,53.6,52.0,29.94,NE,51,0.0,0.0,94,0.00,,,0.00,meteohub,2013-03-22 05:24:00,
2013-03-22 01:29:00,53.4,51.8,29.94,NE,51,0.0,0.0,94,0.00,,,0.00,meteohub,2013-03-22 05:29:00,
2013-03-22 01:34:00,53.2,51.6,29.94,NE,51,0.0,0.0,94,0.00,,,0.00,meteohub,2013-03-22 05:34:00,
2013-03-22 01:39:00,53.2,51.8,29.94,NE,51,0.0,0.0,95,0.00,,,0.00,meteohub,2013-03-22 05:39:00,
2013-03-22 01:44:00,53.2,51.8,29.94,NE,51,0.0,0.0,95,0.00,,,0.00,meteohub,2013-03-22 05:44:00,
2013-03-22 01:49:00,53.4,52.0,29.94,NE,51,0.0,0.0,95,0.00,,,0.00,meteohub,2013-03-22 05:49:00,
2013-03-22 01:54:00,53.2,51.8,29.94,NE,51,0.0,0.0,95,0.00,,,0.00,meteohub,2013-03-22 05:54:00,
2013-03-22 01:59:00,53.4,52.3,29.94,NE,51,0.0,0.0,96,0.00,,,0.00,meteohub,2013-03-22 05:59:00,
2013-03-22 02:04:00,53.6,52.5,29.94,NE,51,0.0,0.0,96,0.00,,,0.00,meteohub,2013-03-22 06:04:00,
2013-03-22 02:09:00,53.6,52.5,29.94,NE,51,0.0,0.0,96,0.00,,,0.00,meteohub,2013-03-22 06:09:00,
2013-03-22 02:14:00,53.4,52.0,29.94,NE,51,0.0,0.0,95,0.00,,,0.00,meteohub,2013-03-22 06:14:00,
2013-03-22 02:19:00,53.4,52.0,29.94,NE,51,0.0,0.0,95,0.00,,,0.00,meteohub,2013-03-22 06:19:00,
2013-03-22 02:24:00,53.2,51.8,29.94,NE,51,0.0,0.0,95,0.00,,,0.00,meteohub,2013-03-22 06:24:00,
2013-03-22 02:29:00,53.1,51.6,29.94,NE,51,0.0,0.0,95,0.00,,,0.00,meteohub,2013-03-22 06:29:00,
2013-03-22 02:34:00,52.9,51.4,29.93,NE,51,0.0,0.0,95,0.00,,,0.00,meteohub,2013-03-22 06:34:00,
2013-03-22 02:39:00,52.7,51.3,29.93,NE,51,0.0,0.0,95,0.00,,,0.00,meteohub,2013-03-22 06:39:00,
2013-03-22 02:44:00,52.5,51.1,29.93,NE,51,0.0,0.0,95,0.00,,,0.00,meteohub,2013-03-22 06:44:00,
2013-03-22 02:49:00,52.3,50.9,29.93,NE,51,0.0,0.0,95,0.00,,,0.00,meteohub,2013-03-22 06:49:00,
2013-03-22 02:54:00,52.3,50.9,29.93,NE,51,0.0,0.0,95,0.00,,,0.00,meteohub,2013-03-22 06:54:00,
2013-03-22 02:59:00,52.3,50.9,29.92,NE,51,0.0,0.0,95,0.00,,,0.00,meteohub,2013-03-22 06:59:00,
2013-03-22 03:04:00,52.2,50.7,29.92,NE,51,0.0,0.0,95,0.00,,,0.00,meteohub,2013-03-22 07:04:00,
2013-03-22 03:09:00,52.2,51.1,29.92,NE,51,0.0,0.0,96,0.00,,,0.00,meteohub,2013-03-22 07:09:00,
2013-03-22 03:14:00,52.2,51.1,29.92,NE,51,0.0,0.0,96,0.00,,,0.00,meteohub,2013-03-22 07:14:00,
2013-03-22 03:19:00,52.2,51.1,29.92,NE,51,0.0,0.0,96,0.00,,,0.00,meteohub,2013-03-22 07:19:00,
2013-03-22 03:24:00,52.0,50.5,29.92,NE,51,0.0,0.0,95,0.00,,,0.00,meteohub,2013-03-22 07:24:00,
2013-03-22 03:29:00,51.8,50.7,29.92,NE,51,0.0,0.0,96,0.00,,,0.00,meteohub,2013-03-22 07:29:00,
2013-03-22 03:34:00,51.8,50.7,29.92,NE,51,0.0,0.0,96,0.00,,,0.00,meteohub,2013-03-22 07:34:00,
2013-03-22 03:39:00,52.0,50.9,29.92,NE,51,0.0,0.0,96,0.00,,,0.00,meteohub,2013-03-22 07:39:00,
2013-03-22 03:44:00,51.8,50.7,29.92,NE,51,0.0,0.0,96,0.00,,,0.00,meteohub,2013-03-22 07:44:00,
2013-03-22 03:49:00,51.8,50.7,29.92,NE,51,0.0,0.0,96,0.00,,,0.00,meteohub,2013-03-22 07:49:00,
2013-03-22 03:54:00,52.0,50.9,29.92,NE,51,0.0,0.0,96,0.00,,,0.00,meteohub,2013-03-22 07:54:00,
2013-03-22 03:59:00,52.0,50.9,29.92,NE,51,0.0,0.0,96,0.00,,,0.00,meteohub,2013-03-22 07:59:00,
2013-03-22 04:04:00,52.0,50.9,29.91,NE,51,0.0,0.0,96,0.00,,,0.00,meteohub,2013-03-22 08:04:00,
2013-03-22 04:09:00,52.0,50.9,29.91,NE,51,0.0,0.0,96,0.00,,,0.00,meteohub,2013-03-22 08:09:00,
2013-03-22 04:14:00,51.8,50.7,29.91,NE,51,0.0,0.0,96,0.00,,,0.00,meteohub,2013-03-22 08:14:00,
2013-03-22 04:19:00,51.8,50.7,29.91,NE,51,0.0,0.0,96,0.00,,,0.00,meteohub,2013-03-22 08:19:00,
2013-03-22 04:24:00,51.6,50.5,29.91,NE,51,0.0,0.0,96,0.00,,,0.00,meteohub,2013-03-22 08:24:00,
2013-03-22 04:29:00,51.6,50.5,29.91,NE,51,0.0,0.0,96,0.00,,,0.00,meteohub,2013-03-22 08:29:00,
2013-03-22 04:34:00,51.6,50.5,29.91,NE,51,0.0,0.0,96,0.00,,,0.00,meteohub,2013-03-22 08:34:00,
2013-03-22 04:39:00,51.6,50.5,29.91,NE,51,0.0,0.0,96,0.00,,,0.00,meteohub,2013-03-22 08:39:00,
2013-03-22 04:44:00,51.4,50.4,29.91,NE,51,0.0,0.0,96,0.00,,,0.00,meteohub,2013-03-22 08:44:00,
2013-03-22 04:49:00,51.4,50.5,29.91,NE,51,0.0,0.0,97,0.00,,,0.00,meteohub,2013-03-22 08:49:00,
2013-03-22 04:54:00,51.4,50.5,29.91,NE,51,0.0,0.0,97,0.00,,,0.00,meteohub,2013-03-22 08:54:00,
2013-03-22 04:59:00,51.6,50.7,29.91,NE,51,0.0,0.0,97,0.00,,,0.00,meteohub,2013-03-22 08:59:00,
2013-03-22 05:04:00,51.8,50.9,29.91,NE,51,0.0,0.0,97,0.00,,,0.00,meteohub,2013-03-22 09:04:00,
2013-03-22 05:09:00,51.6,50.7,29.91,NE,51,0.0,0.0,97,0.00,,,0.00,meteohub,2013-03-22 09:09:00,
2013-03-22 05:14:00,51.6,50.7,29.91,NE,51,0.0,0.0,97,0.00,,,0.00,meteohub,2013-03-22 09:14:00,
2013-03-22 05:20:00,52.2,51.3,29.91,NE,51,0.0,0.0,97,0.00,,,0.00,meteohub,2013-03-22 09:20:00,
2013-03-22 05:25:00,52.3,51.8,29.91,NE,51,0.0,0.0,98,0.00,,,0.00,meteohub,2013-03-22 09:25:00,
2013-03-22 05:30:00,52.7,52.2,29.92,NE,51,0.0,0.0,98,0.00,,,0.00,meteohub,2013-03-22 09:30:00,
2013-03-22 05:35:00,52.9,52.3,29.91,NE,51,0.0,0.0,98,0.00,,,0.00,meteohub,2013-03-22 09:35:00,
2013-03-22 05:40:00,53.1,52.5,29.92,NE,51,0.0,0.0,98,0.00,,,0.00,meteohub,2013-03-22 09:40:00,
2013-03-22 05:45:00,53.1,52.2,29.92,NE,51,0.0,0.0,97,0.00,,,0.00,meteohub,2013-03-22 09:45:00,
2013-03-22 05:50:00,53.1,52.2,29.92,NE,51,0.0,0.0,97,0.00,,,0.00,meteohub,2013-03-22 09:50:00,
2013-03-22 05:55:00,52.9,52.0,29.92,NE,51,0.0,0.0,97,0.00,,,0.00,meteohub,2013-03-22 09:55:00,
2013-03-22 06:00:00,52.9,52.0,29.92,NE,51,0.0,0.0,97,0.00,,,0.00,meteohub,2013-03-22 10:00:00,
2013-03-22 06:05:00,52.5,51.6,29.92,NE,51,0.0,0.0,97,0.00,,,0.00,meteohub,2013-03-22 10:05:00,
2013-03-22 06:10:00,52.5,51.6,29.93,NE,51,0.0,0.0,97,0.00,,,0.00,meteohub,2013-03-22 10:10:00,
2013-03-22 06:15:00,52.7,51.8,29.93,NE,51,0.0,0.0,97,0.00,,,0.00,meteohub,2013-03-22 10:15:00,
2013-03-22 06:20:00,52.9,52.3,29.93,NE,51,0.0,0.0,98,0.00,,,0.00,meteohub,2013-03-22 10:20:00,
2013-03-22 06:25:00,53.1,52.5,29.94,NE,51,0.0,0.0,98,0.00,,,0.00,meteohub,2013-03-22 10:25:00,
2013-03-22 06:30:00,53.1,52.2,29.94,NE,51,0.0,0.0,97,0.00,,,0.00,meteohub,2013-03-22 10:30:00,
2013-03-22 06:35:00,53.1,52.2,29.94,NE,51,0.0,0.0,97,0.00,,,0.00,meteohub,2013-03-22 10:35:00,
2013-03-22 06:40:00,53.1,52.2,29.94,NE,51,0.0,0.0,97,0.00,,,0.00,meteohub,2013-03-22 10:40:00,
2013-03-22 06:45:00,53.8,53.2,29.94,NE,51,0.0,0.0,98,0.00,,,0.00,meteohub,2013-03-22 10:45:00,
2013-03-22 06:50:00,54.1,53.6,29.94,NE,51,0.0,0.0,98,0.00,,,0.00,meteohub,2013-03-22 10:50:00,
2013-03-22 06:55:00,54.0,53.4,29.94,NE,51,0.0,0.0,98,0.00,,,0.00,meteohub,2013-03-22 10:55:00,
2013-03-22 07:00:00,54.0,53.4,29.95,NE,51,0.0,0.0,98,0.00,,,0.00,meteohub,2013-03-22 11:00:00,
2013-03-22 07:05:00,54.1,53.6,29.95,NE,51,0.0,0.0,98,0.00,,,0.00,meteohub,2013-03-22 11:05:00,
2013-03-22 07:10:00,54.1,53.2,29.95,NE,51,0.0,0.0,97,0.00,,,0.00,meteohub,2013-03-22 11:10:00,
2013-03-22 07:15:00,54.1,53.2,29.96,NE,51,0.0,0.0,97,0.00,,,0.00,meteohub,2013-03-22 11:15:00,
2013-03-22 07:20:00,54.1,53.2,29.96,NE,51,0.0,0.0,97,0.00,,,0.00,meteohub,2013-03-22 11:20:00,
2013-03-22 07:25:00,54.1,53.2,29.96,NE,51,0.0,0.0,97,0.01,,,0.01,meteohub,2013-03-22 11:25:00,
2013-03-22 07:30:00,54.0,53.1,29.96,NE,51,0.0,0.0,97,0.01,,,0.01,meteohub,2013-03-22 11:30:00,
2013-03-22 07:35:00,54.0,53.1,29.96,NE,51,0.0,0.0,97,0.01,,,0.01,meteohub,2013-03-22 11:35:00,
2013-03-22 07:40:00,54.0,53.1,29.96,NE,51,0.0,0.0,97,0.01,,,0.01,meteohub,2013-03-22 11:40:00,
2013-03-22 07:45:00,54.1,53.6,29.96,NE,51,0.0,0.0,98,0.01,,,0.01,meteohub,2013-03-22 11:45:00,
2013-03-22 07:50:00,54.3,53.8,29.96,NE,51,0.0,0.0,98,0.01,,,0.01,meteohub,2013-03-22 11:50:00,
2013-03-22 07:55:00,54.7,54.1,29.97,NE,51,0.0,0.0,98,0.01,,,0.01,meteohub,2013-03-22 11:55:00,
2013-03-22 08:00:00,54.9,54.3,29.97,NE,51,0.0,0.0,98,0.01,,,0.01,meteohub,2013-03-22 12:00:00,
2013-03-22 08:05:00,55.2,54.7,29.97,NE,51,0.0,0.0,98,0.01,,,0.01,meteohub,2013-03-22 12:05:00,
2013-03-22 08:10:00,55.6,55.0,29.97,NE,51,0.0,0.0,98,0.01,,,0.01,meteohub,2013-03-22 12:10:00,
2013-03-22 08:15:00,55.9,55.4,29.97,NE,51,0.0,0.0,98,0.01,,,0.01,meteohub,2013-03-22 12:15:00,
2013-03-22 08:20:00,56.7,56.3,29.97,NE,51,0.0,0.0,99,0.01,,,0.01,meteohub,2013-03-22 12:20:00,
2013-03-22 08:25:00,57.2,56.8,29.97,NE,51,0.0,0.0,99,0.00,,,0.01,meteohub,2013-03-22 12:25:00,
2013-03-22 08:30:00,57.6,57.2,29.97,NE,51,0.0,0.0,99,0.00,,,0.01,meteohub,2013-03-22 12:30:00,
2013-03-22 08:35:00,57.9,57.6,29.97,NE,51,0.0,0.0,99,0.00,,,0.01,meteohub,2013-03-22 12:35:00,
2013-03-22 08:40:00,58.5,58.1,29.98,NE,51,0.0,0.0,99,0.00,,,0.01,meteohub,2013-03-22 12:40:00,
2013-03-22 08:45:00,59.2,58.8,29.98,NE,51,0.0,0.0,99,0.00,,,0.01,meteohub,2013-03-22 12:45:00,
2013-03-22 08:50:00,59.7,59.4,29.98,NE,51,0.0,0.0,99,0.00,,,0.01,meteohub,2013-03-22 12:50:00,
2013-03-22 08:55:00,60.4,60.1,29.99,NE,51,0.0,0.0,99,0.00,,,0.01,meteohub,2013-03-22 12:55:00,
2013-03-22 09:00:00,61.2,60.6,29.99,SSW,198,0.0,2.0,98,0.00,,,0.01,meteohub,2013-03-22 13:00:00,
2013-03-22 09:05:00,62.1,60.1,29.99,SSE,154,0.0,3.0,93,0.00,,,0.01,meteohub,2013-03-22 13:05:00,
2013-03-22 09:10:00,63.3,59.7,29.99,ESE,105,0.0,3.0,88,0.00,,,0.01,meteohub,2013-03-22 13:10:00,
2013-03-22 09:15:00,65.3,59.7,29.99,SE,145,0.0,4.0,82,0.00,,,0.01,meteohub,2013-03-22 13:15:00,
2013-03-22 09:20:00,67.1,60.1,29.99,ESE,121,1.0,4.0,78,0.00,,,0.01,meteohub,2013-03-22 13:20:00,
2013-03-22 09:26:00,68.9,59.9,29.99,SE,146,1.0,5.0,73,0.00,,,0.01,meteohub,2013-03-22 13:26:00,
2013-03-22 09:31:00,70.3,59.7,30.00,NNE,30,2.0,5.0,69,0.00,,,0.01,meteohub,2013-03-22 13:31:00,
2013-03-22 09:36:00,71.1,59.9,30.00,East,99,0.0,5.0,68,0.00,,,0.01,meteohub,2013-03-22 13:36:00,
2013-03-22 09:41:00,71.2,58.8,30.00,SE,132,0.0,6.0,65,0.00,,,0.01,meteohub,2013-03-22 13:41:00,
2013-03-22 09:46:00,72.0,59.9,30.00,NNE,22,2.0,6.0,66,0.00,,,0.01,meteohub,2013-03-22 13:46:00,
2013-03-22 09:51:00,72.7,59.4,30.00,ESE,115,0.0,6.0,63,0.00,,,0.01,meteohub,2013-03-22 13:51:00,
2013-03-22 09:56:00,73.2,59.4,30.00,SE,146,5.0,6.0,62,0.00,,,0.01,meteohub,2013-03-22 13:56:00,
2013-03-22 10:01:00,73.6,59.4,30.00,ESE,123,3.0,6.0,61,0.00,,,0.01,meteohub,2013-03-22 14:01:00,
2013-03-22 10:06:00,73.6,58.8,30.00,SSE,148,3.0,7.0,60,0.00,,,0.01,meteohub,2013-03-22 14:06:00,
2013-03-22 10:11:00,73.6,59.4,30.00,South,171,2.0,8.0,61,0.00,,,0.01,meteohub,2013-03-22 14:11:00,
2013-03-22 10:16:00,74.1,59.4,30.00,SSE,150,5.0,8.0,60,0.00,,,0.01,meteohub,2013-03-22 14:16:00,
2013-03-22 10:22:00,74.5,58.8,30.00,SE,130,3.0,8.0,58,0.00,,,0.01,meteohub,2013-03-22 14:22:00,
2013-03-22 10:27:00,74.5,59.7,30.00,East,93,1.0,9.0,60,0.00,,,0.01,meteohub,2013-03-22 14:27:00,
2013-03-22 10:31:00,74.5,59.2,30.00,NE,34,2.0,9.0,59,0.00,,,0.01,meteohub,2013-03-22 14:31:00,
2013-03-22 10:37:00,74.5,59.7,30.01,ESE,119,3.0,9.0,60,0.00,,,0.01,meteohub,2013-03-22 14:37:00,
2013-03-22 10:42:00,74.7,59.9,30.00,SE,129,1.0,7.0,60,0.00,,,0.01,meteohub,2013-03-22 14:42:00,
2013-03-22 10:47:00,74.5,59.7,30.00,ENE,67,0.0,8.0,60,0.00,,,0.01,meteohub,2013-03-22 14:47:00,
2013-03-22 10:52:00,74.3,59.5,30.01,East,87,5.0,8.0,60,0.00,,,0.01,meteohub,2013-03-22 14:52:00,
2013-03-22 10:57:00,74.5,60.1,30.01,ESE,103,8.0,8.0,61,0.00,,,0.01,meteohub,2013-03-22 14:57:00,
2013-03-22 11:02:00,74.5,60.1,30.01,East,101,0.0,9.0,61,0.00,,,0.01,meteohub,2013-03-22 15:02:00,
2013-03-22 11:07:00,74.8,60.4,30.01,SSE,155,0.0,9.0,61,0.00,,,0.01,meteohub,2013-03-22 15:07:00,
2013-03-22 11:12:00,75.0,60.6,30.01,ESE,119,2.0,9.0,61,0.00,,,0.01,meteohub,2013-03-22 15:12:00,
2013-03-22 11:17:00,75.4,60.4,30.01,ESE,113,0.0,8.0,60,0.00,,,0.01,meteohub,2013-03-22 15:17:00,
2013-03-22 11:22:00,75.6,60.3,30.01,SSE,162,2.0,8.0,59,0.00,,,0.01,meteohub,2013-03-22 15:22:00,
2013-03-22 11:27:00,75.6,60.6,30.01,SE,143,2.0,8.0,60,0.00,,,0.01,meteohub,2013-03-22 15:27:00,
2013-03-22 11:32:00,75.7,60.8,30.01,SSE,147,2.0,8.0,60,0.00,,,0.01,meteohub,2013-03-22 15:32:00,
2013-03-22 11:37:00,75.7,60.8,30.01,ESE,102,0.0,8.0,60,0.00,,,0.01,meteohub,2013-03-22 15:37:00,
2013-03-22 11:42:00,75.9,60.6,30.01,SE,136,1.0,8.0,59,0.00,,,0.01,meteohub,2013-03-22 15:42:00,
2013-03-22 11:47:00,75.9,60.1,30.01,South,185,2.0,8.0,58,0.00,,,0.01,meteohub,2013-03-22 15:47:00,
2013-03-22 11:52:00,75.6,60.6,30.01,SE,136,4.0,9.0,60,0.00,,,0.01,meteohub,2013-03-22 15:52:00,
2013-03-22 11:57:00,75.6,60.6,30.01,SSW,196,4.0,9.0,60,0.00,,,0.01,meteohub,2013-03-22 15:57:00,
2013-03-22 12:02:00,75.2,59.9,30.01,SE,143,0.0,9.0,59,0.00,,,0.01,meteohub,2013-03-22 16:02:00,
2013-03-22 12:07:00,74.8,60.4,30.01,SE,146,0.0,10.0,61,0.00,,,0.01,meteohub,2013-03-22 16:07:00,
2013-03-22 12:12:00,74.7,60.3,30.01,ESE,117,5.0,10.0,61,0.00,,,0.01,meteohub,2013-03-22 16:12:00,
2013-03-22 12:17:00,74.1,60.3,30.01,SE,135,3.0,11.0,62,0.00,,,0.01,meteohub,2013-03-22 16:17:00,
2013-03-22 12:22:00,73.9,59.7,30.01,East,89,2.0,11.0,61,0.00,,,0.01,meteohub,2013-03-22 16:22:00,
2013-03-22 12:27:00,73.9,60.1,30.01,ESE,122,1.0,11.0,62,0.00,,,0.01,meteohub,2013-03-22 16:27:00,
2013-03-22 12:32:00,73.9,59.7,30.01,SE,132,1.0,7.0,61,0.00,,,0.01,meteohub,2013-03-22 16:32:00,
2013-03-22 12:37:00,73.9,60.6,30.01,SE,137,4.0,7.0,63,0.00,,,0.01,meteohub,2013-03-22 16:37:00,
2013-03-22 12:42:00,73.9,60.1,30.01,ESE,113,4.0,8.0,62,0.00,,,0.01,meteohub,2013-03-22 16:42:00,
2013-03-22 12:47:00,73.8,60.4,30.01,SSE,168,3.0,9.0,63,0.00,,,0.01,meteohub,2013-03-22 16:47:00,
2013-03-22 12:52:00,73.9,60.1,30.01,ESE,109,1.0,9.0,62,0.00,,,0.01,meteohub,2013-03-22 16:52:00,
2013-03-22 12:58:00,74.3,59.9,30.01,SE,124,3.0,9.0,61,0.00,,,0.01,meteohub,2013-03-22 16:58:00,
2013-03-22 13:03:00,73.9,59.7,30.01,SSE,156,7.0,7.0,61,0.00,,,0.01,meteohub,2013-03-22 17:03:00,
2013-03-22 13:08:00,74.1,59.7,30.00,ESE,107,4.0,9.0,61,0.00,,,0.01,meteohub,2013-03-22 17:08:00,
2013-03-22 13:13:00,74.1,59.4,30.00,ESE,123,4.0,9.0,60,0.00,,,0.01,meteohub,2013-03-22 17:13:00,
2013-03-22 13:18:00,74.3,59.9,30.00,SSE,161,0.0,9.0,61,0.00,,,0.01,meteohub,2013-03-22 17:18:00,
2013-03-22 13:23:00,74.1,59.4,30.00,ESE,106,0.0,8.0,60,0.00,,,0.01,meteohub,2013-03-22 17:23:00,
2013-03-22 13:28:00,74.1,59.7,30.00,ESE,109,0.0,8.0,61,0.00,,,0.01,meteohub,2013-03-22 17:28:00,
2013-03-22 13:33:00,74.1,59.7,30.00,East,90,0.0,8.0,61,0.00,,,0.01,meteohub,2013-03-22 17:33:00,
2013-03-22 13:38:00,74.1,59.4,30.00,East,87,2.0,8.0,60,0.00,,,0.01,meteohub,2013-03-22 17:38:00,
2013-03-22 13:43:00,73.6,59.4,29.99,SSE,148,4.0,9.0,61,0.00,,,0.01,meteohub,2013-03-22 17:43:00,
2013-03-22 13:48:00,73.2,59.4,29.99,East,96,2.0,9.0,62,0.00,,,0.01,meteohub,2013-03-22 17:48:00,
2013-03-22 13:53:00,73.2,59.4,29.99,ESE,113,2.0,9.0,62,0.00,,,0.01,meteohub,2013-03-22 17:53:00,
2013-03-22 13:58:00,73.2,59.0,29.99,SE,140,3.0,9.0,61,0.00,,,0.01,meteohub,2013-03-22 17:58:00,
2013-03-22 14:03:00,73.0,59.2,29.98,SE,128,1.0,9.0,62,0.00,,,0.01,meteohub,2013-03-22 18:03:00,
2013-03-22 14:08:00,73.0,59.2,29.98,SSE,165,1.0,9.0,62,0.00,,,0.01,meteohub,2013-03-22 18:08:00,
2013-03-22 14:13:00,73.0,59.2,29.97,East,90,7.0,10.0,62,0.00,,,0.01,meteohub,2013-03-22 18:13:00,
2013-03-22 14:18:00,73.9,59.7,29.96,SE,135,3.0,10.0,61,0.00,,,0.01,meteohub,2013-03-22 18:18:00,
2013-03-22 14:23:00,74.8,60.1,29.97,South,169,0.0,10.0,60,0.00,,,0.01,meteohub,2013-03-22 18:23:00,
2013-03-22 14:28:00,74.7,59.9,29.97,SSE,166,4.0,9.0,60,0.00,,,0.01,meteohub,2013-03-22 18:28:00,
2013-03-22 14:33:00,74.5,59.7,29.97,SSE,167,5.0,10.0,60,0.00,,,0.01,meteohub,2013-03-22 18:33:00,
2013-03-22 14:38:00,74.1,59.4,29.96,SSE,161,1.0,10.0,60,0.00,,,0.01,meteohub,2013-03-22 18:38:00,
2013-03-22 14:43:00,73.9,59.2,29.96,SSE,161,4.0,10.0,60,0.00,,,0.01,meteohub,2013-03-22 18:43:00,
2013-03-22 14:48:00,74.1,59.4,29.96,SSE,164,0.0,10.0,60,0.00,,,0.01,meteohub,2013-03-22 18:48:00,
2013-03-22 14:53:00,73.8,59.5,29.96,South,173,4.0,11.0,61,0.00,,,0.01,meteohub,2013-03-22 18:53:00,
2013-03-22 14:58:00,73.8,59.5,29.96,SSE,161,3.0,11.0,61,0.00,,,0.01,meteohub,2013-03-22 18:58:00,
2013-03-22 15:03:00,73.9,59.7,29.95,ESE,120,4.0,11.0,61,0.00,,,0.01,meteohub,2013-03-22 19:03:00,
2013-03-22 15:08:00,73.9,59.7,29.95,ESE,123,2.0,11.0,61,0.00,,,0.01,meteohub,2013-03-22 19:08:00,
2013-03-22 15:13:00,73.8,59.0,29.94,South,169,7.0,11.0,60,0.00,,,0.01,meteohub,2013-03-22 19:13:00,
2013-03-22 15:18:00,73.6,59.4,29.94,SSW,198,5.0,11.0,61,0.00,,,0.01,meteohub,2013-03-22 19:18:00,
2013-03-22 15:23:00,73.4,59.2,29.94,South,185,2.0,11.0,61,0.00,,,0.01,meteohub,2013-03-22 19:23:00,
2013-03-22 15:28:00,73.6,59.4,29.94,SE,128,8.0,11.0,61,0.00,,,0.01,meteohub,2013-03-22 19:28:00,
2013-03-22 15:33:00,73.8,59.5,29.94,SSE,156,8.0,13.0,61,0.00,,,0.01,meteohub,2013-03-22 19:33:00,
2013-03-22 15:38:00,74.1,59.7,29.94,SSW,204,5.0,13.0,61,0.00,,,0.01,meteohub,2013-03-22 19:38:00,
2013-03-22 15:43:00,75.4,60.4,29.94,SSW,207,1.0,13.0,60,0.00,,,0.01,meteohub,2013-03-22 19:43:00,
2013-03-22 15:48:00,75.9,60.6,29.94,SE,130,2.0,13.0,59,0.00,,,0.01,meteohub,2013-03-22 19:48:00,
2013-03-22 15:53:00,75.6,59.7,29.94,East,99,3.0,13.0,58,0.00,,,0.01,meteohub,2013-03-22 19:53:00,
2013-03-22 15:58:00,74.7,59.9,29.94,SE,140,2.0,13.0,60,0.00,,,0.01,meteohub,2013-03-22 19:58:00,
2013-03-22 16:03:00,74.3,59.5,29.94,SSW,197,3.0,13.0,60,0.00,,,0.01,meteohub,2013-03-22 20:03:00,
2013-03-22 16:08:00,74.1,59.7,29.94,SSE,157,1.0,11.0,61,0.00,,,0.01,meteohub,2013-03-22 20:08:00,
2013-03-22 16:14:00,74.1,60.3,29.94,SE,132,5.0,10.0,62,0.00,,,0.01,meteohub,2013-03-22 20:14:00,
2013-03-22 16:19:00,73.9,60.6,29.93,SE,135,1.0,9.0,63,0.00,,,0.01,meteohub,2013-03-22 20:19:00,
2013-03-22 16:24:00,73.9,60.6,29.93,South,188,7.0,11.0,63,0.00,,,0.01,meteohub,2013-03-22 20:24:00,
2013-03-22 16:29:00,73.6,61.5,29.93,SSE,162,4.0,11.0,66,0.00,,,0.01,meteohub,2013-03-22 20:29:00,
2013-03-22 16:34:00,73.0,61.0,29.93,South,175,0.0,11.0,66,0.00,,,0.01,meteohub,2013-03-22 20:34:00,
2013-03-22 16:39:00,72.9,60.8,29.93,South,185,1.0,10.0,66,0.00,,,0.01,meteohub,2013-03-22 20:39:00,
2013-03-22 16:44:00,72.9,60.8,29.93,SE,137,0.0,10.0,66,0.00,,,0.01,meteohub,2013-03-22 20:44:00,
2013-03-22 16:49:00,73.0,61.0,29.93,SE,141,0.0,10.0,66,0.00,,,0.01,meteohub,2013-03-22 20:49:00,
2013-03-22 16:54:00,73.4,61.3,29.93,East,90,2.0,7.0,66,0.00,,,0.01,meteohub,2013-03-22 20:54:00,
2013-03-22 16:59:00,73.6,61.5,29.93,SE,142,0.0,8.0,66,0.00,,,0.01,meteohub,2013-03-22 20:59:00,
2013-03-22 17:04:00,73.8,61.3,29.93,South,187,6.0,8.0,65,0.00,,,0.01,meteohub,2013-03-22 21:04:00,
2013-03-22 17:09:00,73.6,61.5,29.93,SSW,194,1.0,8.0,66,0.00,,,0.01,meteohub,2013-03-22 21:09:00,
2013-03-22 17:14:00,73.6,61.9,29.93,SSE,165,3.0,9.0,67,0.00,,,0.01,meteohub,2013-03-22 21:14:00,
2013-03-22 17:19:00,73.6,61.9,29.93,ENE,58,3.0,9.0,67,0.00,,,0.01,meteohub,2013-03-22 21:19:00,
2013-03-22 17:24:00,73.6,62.4,29.93,South,176,5.0,9.0,68,0.00,,,0.01,meteohub,2013-03-22 21:24:00,
2013-03-22 17:29:00,73.8,62.6,29.93,ESE,123,4.0,9.0,68,0.00,,,0.01,meteohub,2013-03-22 21:29:00,
2013-03-22 17:34:00,73.6,62.4,29.93,SSW,192,5.0,9.0,68,0.00,,,0.01,meteohub,2013-03-22 21:34:00,
2013-03-22 17:39:00,73.4,62.6,29.93,South,185,3.0,9.0,69,0.00,,,0.01,meteohub,2013-03-22 21:39:00,
2013-03-22 17:44:00,73.0,62.6,29.94,SSE,158,3.0,11.0,70,0.00,,,0.01,meteohub,2013-03-22 21:44:00,
2013-03-22 17:49:00,73.2,63.3,29.93,South,178,0.0,11.0,71,0.00,,,0.01,meteohub,2013-03-22 21:49:00,
2013-03-22 17:54:00,73.4,63.5,29.93,SSE,156,3.0,11.0,71,0.00,,,0.01,meteohub,2013-03-22 21:54:00,
2013-03-22 17:59:00,73.6,63.7,29.93,ESE,118,2.0,11.0,71,0.00,,,0.01,meteohub,2013-03-22 21:59:00,
2013-03-22 18:04:00,73.6,64.0,29.93,SSE,148,2.0,11.0,72,0.00,,,0.01,meteohub,2013-03-22 22:04:00,
2013-03-22 18:09:00,73.2,64.0,29.93,SE,136,2.0,9.0,73,0.00,,,0.01,meteohub,2013-03-22 22:09:00,
2013-03-22 18:14:00,73.4,64.2,29.92,ESE,111,5.0,8.0,73,0.00,,,0.01,meteohub,2013-03-22 22:14:00,
2013-03-22 18:19:00,73.4,64.6,29.93,South,184,4.0,11.0,74,0.00,,,0.01,meteohub,2013-03-22 22:19:00,
2013-03-22 18:24:00,73.6,64.8,29.93,ESE,118,1.0,11.0,74,0.00,,,0.01,meteohub,2013-03-22 22:24:00,
2013-03-22 18:29:00,73.6,65.1,29.93,WSW,238,4.0,11.0,75,0.00,,,0.01,meteohub,2013-03-22 22:29:00,
2013-03-22 18:34:00,73.8,65.3,29.93,SE,141,2.0,10.0,75,0.00,,,0.01,meteohub,2013-03-22 22:34:00,
2013-03-22 18:39:00,73.6,65.5,29.93,SE,130,4.0,10.0,76,0.00,,,0.01,meteohub,2013-03-22 22:39:00,
2013-03-22 18:44:00,73.6,65.5,29.93,South,175,4.0,10.0,76,0.00,,,0.01,meteohub,2013-03-22 22:44:00,
2013-03-22 18:49:00,73.2,65.7,29.93,South,184,4.0,12.0,77,0.00,,,0.01,meteohub,2013-03-22 22:49:00,
2013-03-22 18:54:00,73.2,65.7,29.94,SSE,151,0.0,12.0,77,0.00,,,0.01,meteohub,2013-03-22 22:54:00,
2013-03-22 18:59:00,73.0,65.8,29.94,South,188,7.0,12.0,78,0.00,,,0.01,meteohub,2013-03-22 22:59:00,
2013-03-22 19:04:00,73.0,66.2,29.94,SSE,166,0.0,9.0,79,0.00,,,0.01,meteohub,2013-03-22 23:04:00,
2013-03-22 19:09:00,73.0,66.2,29.94,SSW,205,4.0,8.0,79,0.00,,,0.01,meteohub,2013-03-22 23:09:00,
2013-03-22 19:14:00,73.0,66.6,29.94,SW,215,4.0,8.0,80,0.00,,,0.01,meteohub,2013-03-22 23:14:00,
2013-03-22 19:19:00,73.0,66.6,29.95,SSW,207,1.0,8.0,80,0.00,,,0.01,meteohub,2013-03-22 23:19:00,
2013-03-22 19:24:00,73.0,66.6,29.95,SE,146,1.0,7.0,80,0.00,,,0.01,meteohub,2013-03-22 23:24:00,
2013-03-22 19:29:00,73.0,66.6,29.95,SSW,199,2.0,7.0,80,0.00,,,0.01,meteohub,2013-03-22 23:29:00,
2013-03-22 19:34:00,73.0,66.9,29.95,South,169,2.0,7.0,81,0.00,,,0.01,meteohub,2013-03-22 23:34:00,
2013-03-22 19:39:00,72.9,66.7,29.95,SE,132,1.0,7.0,81,0.00,,,0.01,meteohub,2013-03-22 23:39:00,
2013-03-22 19:44:00,72.9,66.7,29.95,SSE,165,1.0,7.0,81,0.00,,,0.01,meteohub,2013-03-22 23:44:00,
2013-03-22 19:49:00,72.9,67.1,29.94,SE,144,1.0,7.0,82,0.00,,,0.01,meteohub,2013-03-22 23:49:00,
2013-03-22 19:54:00,72.9,67.1,29.94,South,187,4.0,8.0,82,0.00,,,0.01,meteohub,2013-03-22 23:54:00,
2013-03-22 19:59:00,72.9,67.1,29.94,SSE,162,6.0,8.0,82,0.00,,,0.01,meteohub,2013-03-22 23:59:00,
2013-03-22 20:04:00,72.9,67.1,29.94,SSW,193,2.0,8.0,82,0.00,,,0.01,meteohub,2013-03-23 00:04:00,
2013-03-22 20:09:00,73.0,67.3,29.94,SE,144,3.0,8.0,82,0.00,,,0.00,meteohub,2013-03-23 00:09:00,
2013-03-22 20:14:00,73.0,67.6,29.94,South,173,2.0,8.0,83,0.00,,,0.00,meteohub,2013-03-23 00:14:00,
2013-03-22 20:20:00,73.0,67.6,29.95,South,172,0.0,8.0,83,0.00,,,0.00,meteohub,2013-03-23 00:20:00,
2013-03-22 20:25:00,73.0,67.6,29.95,South,190,3.0,9.0,83,0.00,,,0.00,meteohub,2013-03-23 00:25:00,
2013-03-22 20:30:00,73.0,67.6,29.95,SSE,167,3.0,9.0,83,0.00,,,0.00,meteohub,2013-03-23 00:30:00,
2013-03-22 20:35:00,73.2,67.8,29.96,ESE,120,2.0,9.0,83,0.00,,,0.00,meteohub,2013-03-23 00:35:00,
2013-03-22 20:40:00,73.2,67.8,29.96,SSE,153,0.0,11.0,83,0.00,,,0.00,meteohub,2013-03-23 00:40:00,
2013-03-22 20:45:00,73.2,67.8,29.96,SSE,168,2.0,11.0,83,0.00,,,0.00,meteohub,2013-03-23 00:45:00,
2013-03-22 20:50:00,73.2,67.8,29.96,SSE,167,2.0,11.0,83,0.00,,,0.00,meteohub,2013-03-23 00:50:00,
2013-03-22 20:55:00,73.4,68.0,29.96,SSW,200,3.0,10.0,83,0.00,,,0.00,meteohub,2013-03-23 00:55:00,
2013-03-22 21:00:00,73.4,68.0,29.96,SSE,167,3.0,9.0,83,0.00,,,0.00,meteohub,2013-03-23 01:00:00,
2013-03-22 21:05:00,73.4,68.0,29.96,South,182,3.0,9.0,83,0.00,,,0.00,meteohub,2013-03-23 01:05:00,
2013-03-22 21:10:00,73.4,68.0,29.96,East,101,6.0,9.0,83,0.00,,,0.00,meteohub,2013-03-23 01:10:00,
2013-03-22 21:15:00,73.6,68.4,29.96,SE,140,4.0,10.0,84,0.00,,,0.00,meteohub,2013-03-23 01:15:00,
2013-03-22 21:20:00,73.4,68.2,29.96,SSE,150,3.0,10.0,84,0.00,,,0.00,meteohub,2013-03-23 01:20:00,
2013-03-22 21:25:00,73.4,68.2,29.96,SSW,209,3.0,11.0,84,0.00,,,0.00,meteohub,2013-03-23 01:25:00,
2013-03-22 21:30:00,73.4,68.2,29.97,South,169,2.0,11.0,84,0.00,,,0.00,meteohub,2013-03-23 01:30:00,
2013-03-22 21:35:00,73.4,68.2,29.97,SSW,198,1.0,11.0,84,0.00,,,0.00,meteohub,2013-03-23 01:35:00,
2013-03-22 21:40:00,73.4,68.2,29.97,SE,140,5.0,9.0,84,0.00,,,0.00,meteohub,2013-03-23 01:40:00,
2013-03-22 21:45:00,73.6,68.7,29.97,SE,134,0.0,8.0,85,0.00,,,0.00,meteohub,2013-03-23 01:45:00,
2013-03-22 21:50:00,73.6,68.7,29.97,ESE,118,2.0,8.0,85,0.00,,,0.00,meteohub,2013-03-23 01:50:00,
2013-03-22 21:55:00,73.6,68.7,29.97,SE,124,0.0,9.0,85,0.00,,,0.00,meteohub,2013-03-23 01:55:00,
2013-03-22 22:00:00,73.6,68.7,29.98,SSE,156,0.0,9.0,85,0.00,,,0.00,meteohub,2013-03-23 02:00:00,
2013-03-22 22:05:00,73.6,68.7,29.97,South,190,8.0,9.0,85,0.00,,,0.00,meteohub,2013-03-23 02:05:00,
2013-03-22 22:10:00,73.6,69.1,29.97,SE,139,2.0,9.0,86,0.00,,,0.00,meteohub,2013-03-23 02:10:00,
2013-03-22 22:15:00,73.4,69.3,29.98,South,179,3.0,9.0,87,0.00,,,0.00,meteohub,2013-03-23 02:15:00,
2013-03-22 22:20:00,73.2,69.4,29.98,SSW,192,0.0,9.0,88,0.00,,,0.00,meteohub,2013-03-23 02:20:00,
2013-03-22 22:25:00,73.0,69.3,29.98,SE,145,2.0,9.0,88,0.00,,,0.00,meteohub,2013-03-23 02:25:00,
2013-03-22 22:30:00,73.0,69.3,29.98,South,175,3.0,7.0,88,0.00,,,0.00,meteohub,2013-03-23 02:30:00,
2013-03-22 22:35:00,73.0,69.3,29.98,SSE,154,1.0,7.0,88,0.00,,,0.00,meteohub,2013-03-23 02:35:00,
2013-03-22 22:40:00,73.0,69.3,29.98,South,182,0.0,7.0,88,0.00,,,0.00,meteohub,2013-03-23 02:40:00,
2013-03-22 22:45:00,73.0,69.3,29.98,SW,214,7.0,7.0,88,0.00,,,0.00,meteohub,2013-03-23 02:45:00,
2013-03-22 22:50:00,73.0,68.9,29.98,South,183,3.0,11.0,87,0.00,,,0.00,meteohub,2013-03-23 02:50:00,
2013-03-22 22:55:00,73.0,68.9,29.98,SSE,158,2.0,11.0,87,0.00,,,0.00,meteohub,2013-03-23 02:55:00,
2013-03-22 23:00:00,73.0,68.9,29.98,SSW,209,5.0,11.0,87,0.00,,,0.00,meteohub,2013-03-23 03:00:00,
2013-03-22 23:05:00,73.0,69.3,29.97,South,178,0.0,8.0,88,0.00,,,0.00,meteohub,2013-03-23 03:05:00,
2013-03-22 23:10:00,73.0,69.3,29.97,SSE,165,5.0,8.0,88,0.00,,,0.00,meteohub,2013-03-23 03:10:00,
2013-03-22 23:15:00,73.0,69.3,29.98,South,178,1.0,9.0,88,0.00,,,0.00,meteohub,2013-03-23 03:15:00,
2013-03-22 23:20:00,73.0,69.3,29.99,SSE,154,2.0,9.0,88,0.00,,,0.00,meteohub,2013-03-23 03:20:00,
2013-03-22 23:25:00,73.0,69.3,29.99,South,178,1.0,9.0,88,0.00,,,0.00,meteohub,2013-03-23 03:25:00,
2013-03-22 23:30:00,73.0,69.3,29.99,South,173,2.0,6.0,88,0.00,,,0.00,meteohub,2013-03-23 03:30:00,
2013-03-22 23:35:00,73.2,69.4,29.99,SSW,198,0.0,6.0,88,0.00,,,0.00,meteohub,2013-03-23 03:35:00,
2013-03-22 23:40:00,73.0,69.3,29.99,SSE,167,0.0,6.0,88,0.00,,,0.00,meteohub,2013-03-23 03:40:00,
2013-03-22 23:45:00,73.0,69.3,29.99,South,177,0.0,6.0,88,0.00,,,0.00,meteohub,2013-03-23 03:45:00,
2013-03-22 23:50:00,73.0,69.3,29.99,South,191,2.0,6.0,88,0.00,,,0.00,meteohub,2013-03-23 03:50:00,
2013-03-22 23:55:00,73.0,69.6,30.00,South,188,0.0,5.0,89,0.00,,,0.00,meteohub,2013-03-23 03:55:00,